Time;durP1;ratioP1;P1;durP2;ratioP2;P2;SDS_P1;SDS_P2;PMS_P1;PMS_P2;Temp;Humidity;BMP_temperature;BMP_pressure;BME280_temperature;BME280_humidity;BME280_pressure;Samples;Min_cycle;Max_cycle;Signal;HPM_P1;HPM_P2
2021/04/25 00:01:15;;;;;;;2.67;2.10;;;;;;;4.64;67.04;101544.31;4984126;28;20210;-76
2021/04/25 00:03:41;;;;;;;5.00;2.27;;;;;;;4.61;66.10;101538.22;4983490;28;20770;-75
2021/04/25 00:06:08;;;;;;;2.43;2.20;;;;;;;4.59;66.56;101540.81;4981216;28;20225;-75
2021/04/25 00:08:34;;;;;;;5.20;1.97;;;;;;;4.55;67.08;101539.88;4981146;28;20567;-76
2021/04/25 00:11:01;;;;;;;2.67;1.93;;;;;;;4.51;66.92;101537.25;4983008;28;20220;-75
2021/04/25 00:13:28;;;;;;;5.40;1.93;;;;;;;4.49;66.25;101541.53;4982473;28;20263;-76
2021/04/25 00:15:54;;;;;;;4.80;2.03;;;;;;;4.47;66.36;101536.34;4985607;28;21008;-75
2021/04/25 00:18:20;;;;;;;4.70;2.33;;;;;;;4.48;66.55;101539.78;4985772;28;21572;-75
2021/04/25 00:20:46;;;;;;;3.70;2.63;;;;;;;4.44;66.52;101525.97;4986124;28;20691;-75
2021/04/25 00:23:13;;;;;;;5.63;2.10;;;;;;;4.41;66.36;101532.81;4985355;28;20292;-75
2021/04/25 00:25:39;;;;;;;4.20;2.40;;;;;;;4.42;69.11;101524.22;4984513;28;20592;-75
2021/04/25 00:28:06;;;;;;;3.70;1.67;;;;;;;4.35;67.94;101526.72;4986515;28;20284;-75
2021/04/25 00:30:32;;;;;;;4.30;2.50;;;;;;;4.37;70.78;101524.16;4985009;28;20748;-75
2021/04/25 00:32:58;;;;;;;4.17;2.90;;;;;;;4.35;71.50;101516.38;4979130;28;20801;-75
2021/04/25 00:35:24;;;;;;;3.80;2.30;;;;;;;4.31;69.80;101519.78;4978946;28;20201;-75
2021/04/25 00:37:50;;;;;;;4.90;2.57;;;;;;;4.28;71.78;101516.28;4984084;28;20216;-75
2021/04/25 00:40:18;;;;;;;2.87;2.00;;;;;;;4.25;71.12;101519.69;4973439;28;20201;-75
2021/04/25 00:42:45;;;;;;;5.50;2.20;;;;;;;4.25;70.34;101514.53;4977131;28;20296;-75
2021/04/25 00:45:14;;;;;;;5.73;2.20;;;;;;;4.22;70.82;101511.91;4984846;28;20197;-76
2021/04/25 00:47:41;;;;;;;5.37;2.07;;;;;;;4.20;72.15;101516.16;4978034;28;20245;-76
2021/04/25 00:50:09;;;;;;;3.03;1.83;;;;;;;4.17;73.85;101504.09;4982001;28;20201;-75
2021/04/25 00:52:38;;;;;;;3.20;1.70;;;;;;;4.09;71.54;101508.28;4978294;28;20197;-75
2021/04/25 00:55:06;;;;;;;3.30;1.90;;;;;;;4.09;75.74;101500.53;4977454;28;20189;-76
2021/04/25 00:57:32;;;;;;;2.70;1.80;;;;;;;4.07;75.71;101493.63;4977409;28;20682;-76
2021/04/25 00:59:59;;;;;;;2.77;1.80;;;;;;;4.00;74.69;101492.66;4979682;28;20193;-76
2021/04/25 01:02:25;;;;;;;4.73;2.00;;;;;;;3.83;72.91;101507.00;4970618;28;20231;-75
2021/04/25 01:04:51;;;;;;;2.93;1.90;;;;;;;3.68;71.43;101513.66;4975726;28;20244;-75
2021/04/25 01:07:18;;;;;;;2.70;2.00;;;;;;;3.65;73.48;101497.28;4966930;28;20237;-75
2021/04/25 01:09:44;;;;;;;4.27;1.90;;;;;;;3.59;74.66;101496.31;4975793;28;20272;-75
2021/04/25 01:12:10;;;;;;;3.07;1.80;;;;;;;3.41;72.59;101512.38;4983904;28;20421;-75
2021/04/25 01:14:37;;;;;;;4.03;1.90;;;;;;;3.36;74.19;101503.69;4983605;28;20806;-76
2021/04/25 01:17:03;;;;;;;2.67;2.00;;;;;;;3.32;75.36;101506.16;4977383;28;20200;-75
2021/04/25 01:19:29;;;;;;;3.00;2.03;;;;;;;3.28;77.99;101501.81;4986591;28;21038;-75
2021/04/25 01:21:56;;;;;;;4.67;2.20;;;;;;;3.27;80.56;101505.22;4979970;28;20221;-75
2021/04/25 01:24:22;;;;;;;3.17;1.70;;;;;;;3.03;76.06;101511.66;4983148;28;20236;-75
2021/04/25 01:26:49;;;;;;;3.33;1.80;;;;;;;3.01;80.00;101503.03;4978379;28;20259;-76
2021/04/25 01:29:15;;;;;;;3.07;1.83;;;;;;;2.90;81.98;101497.66;4980887;28;20674;-76
2021/04/25 01:31:41;;;;;;;2.93;1.73;;;;;;;2.87;82.06;101487.31;4974929;28;20228;-75
2021/04/25 01:34:07;;;;;;;3.40;2.03;;;;;;;2.69;81.62;101499.81;4976045;28;20228;-75
2021/04/25 01:36:33;;;;;;;4.70;2.30;;;;;;;2.60;81.88;101503.06;4982718;28;20584;-76
2021/04/25 01:39:00;;;;;;;4.27;2.10;;;;;;;2.56;82.84;101503.84;4979834;28;20279;-75
2021/04/25 01:41:26;;;;;;;4.47;2.37;;;;;;;2.52;84.29;101497.78;4984010;28;20198;-75
2021/04/25 01:43:52;;;;;;;3.37;2.13;;;;;;;2.42;83.63;101498.41;4978904;28;20243;-75
2021/04/25 01:46:18;;;;;;;5.47;2.67;;;;;;;2.34;84.40;101495.69;4976923;28;20208;-78
2021/04/25 01:48:44;;;;;;;4.93;2.17;;;;;;;2.35;85.31;101501.69;4979948;28;20305;-79
2021/04/25 01:51:11;;;;;;;5.47;2.23;;;;;;;2.22;85.48;101500.56;4981018;28;20232;-77
2021/04/25 01:53:37;;;;;;;2.77;2.07;;;;;;;2.13;84.10;101503.81;4983702;28;20673;-78
2021/04/25 01:56:05;;;;;;;5.70;2.20;;;;;;;2.11;85.46;101495.19;4978871;28;20204;-77
2021/04/25 01:58:30;;;;;;;3.53;2.13;;;;;;;2.03;86.00;101489.84;4987189;28;20539;-77
2021/04/25 02:00:57;;;;;;;2.90;2.00;;;;;;;1.93;84.35;101492.19;4985180;28;20199;-77
2021/04/25 02:03:25;;;;;;;3.60;2.10;;;;;;;1.92;85.53;101493.00;4985213;28;20307;-78
2021/04/25 02:05:50;;;;;;;3.60;1.90;;;;;;;1.86;85.63;101486.00;4985930;28;20212;-77
2021/04/25 02:08:16;;;;;;;3.23;1.83;;;;;;;1.88;87.22;101486.91;4981114;28;20251;-77
2021/04/25 02:10:45;;;;;;;2.80;2.20;;;;;;;2.04;88.78;101473.59;4983400;28;20206;-77
2021/04/25 02:13:12;;;;;;;5.87;2.37;;;;;;;1.92;86.31;101481.03;4982337;28;20224;-77
2021/04/25 02:15:39;;;;;;;2.30;1.87;;;;;;;1.95;87.63;101487.94;4987348;28;20666;-78
2021/04/25 02:18:06;;;;;;;3.27;1.83;;;;;;;2.00;88.82;101484.63;4980774;28;20596;-78
2021/04/25 02:20:33;;;;;;;3.83;2.00;;;;;;;1.98;87.76;101481.16;4983086;28;20187;-77
2021/04/25 02:23:00;;;;;;;4.03;2.00;;;;;;;1.96;87.75;101484.53;4979193;28;20225;-77
2021/04/25 02:25:26;;;;;;;4.37;2.50;;;;;;;2.07;89.81;101483.06;4984752;28;20281;-77
2021/04/25 02:27:52;;;;;;;3.60;1.63;;;;;;;2.07;88.93;101485.63;4986206;28;20939;-77
2021/04/25 02:30:22;;;;;;;4.93;2.20;;;;;;;2.06;88.21;101489.06;4988042;28;20574;-78
2021/04/25 02:32:48;;;;;;;4.53;1.87;;;;;;;2.02;87.01;101484.66;4983062;28;20618;-77
2021/04/25 02:35:16;;;;;;;4.60;2.00;;;;;;;1.99;87.22;101488.06;4984029;28;20205;-77
2021/04/25 02:37:42;;;;;;;4.30;2.10;;;;;;;2.04;87.78;101483.88;4986364;28;20242;-77
2021/04/25 02:40:10;;;;;;;4.63;1.90;;;;;;;2.04;87.55;101495.84;4981418;28;20195;-74
2021/04/25 02:42:37;;;;;;;3.07;1.90;;;;;;;2.13;89.18;101487.47;4981661;28;20196;-77
2021/04/25 02:45:03;;;;;;;3.97;1.80;;;;;;;2.01;86.55;101491.53;4981397;28;20280;-77
2021/04/25 02:47:29;;;;;;;6.40;2.13;;;;;;;2.02;87.11;101488.13;4982616;28;20199;-76
2021/04/25 02:49:56;;;;;;;4.97;3.00;;;;;;;2.04;87.58;101489.03;4983186;28;20861;-75
2021/04/25 02:52:25;;;;;;;8.03;3.90;;;;;;;2.14;88.45;101484.06;4985009;28;20207;-75
2021/04/25 02:54:51;;;;;;;5.37;3.00;;;;;;;2.20;87.75;101482.53;4975344;28;20317;-76
2021/04/25 02:57:17;;;;;;;5.17;2.83;;;;;;;2.28;88.26;101487.81;4983889;28;20229;-76
2021/04/25 02:59:43;;;;;;;4.57;2.40;;;;;;;2.24;87.12;101493.75;4982246;28;20798;-76
2021/04/25 03:02:09;;;;;;;3.63;2.50;;;;;;;2.20;85.46;101495.38;4987557;28;20738;-77
2021/04/25 03:04:36;;;;;;;4.37;2.43;;;;;;;2.32;88.99;101491.31;4984852;28;20244;-76
2021/04/25 03:07:02;;;;;;;5.27;2.70;;;;;;;2.27;87.81;101492.09;4988480;28;20689;-77
2021/04/25 03:09:28;;;;;;;3.93;2.47;;;;;;;2.24;87.97;101496.31;4985609;28;20226;-76
2021/04/25 03:11:54;;;;;;;6.50;3.10;;;;;;;2.10;85.62;101497.72;4986666;28;20762;-77
2021/04/25 03:14:20;;;;;;;6.27;3.47;;;;;;;2.06;86.71;101504.50;4988703;28;20247;-75
2021/04/25 03:16:46;;;;;;;5.17;2.17;;;;;;;2.03;86.60;101504.41;4984303;28;20208;-75
2021/04/25 03:19:12;;;;;;;4.37;2.53;;;;;;;2.08;87.75;101498.53;4987341;28;20642;-76
2021/04/25 03:21:39;;;;;;;5.97;2.80;;;;;;;2.13;87.83;101500.34;4985572;28;20278;-77
2021/04/25 03:24:06;;;;;;;4.67;2.97;;;;;;;2.16;89.46;101492.69;4980813;28;20892;-76
2021/04/25 03:26:32;;;;;;;5.30;2.20;;;;;;;2.22;88.87;101490.28;4981440;28;20240;-76
2021/04/25 03:28:58;;;;;;;5.17;2.80;;;;;;;2.31;90.27;101484.47;4985780;28;20195;-77
2021/04/25 03:31:24;;;;;;;4.10;2.27;;;;;;;2.19;87.35;101493.63;4988427;28;20237;-76
2021/04/25 03:33:50;;;;;;;5.90;2.53;;;;;;;2.09;88.17;101481.41;4984563;28;20236;-77
2021/04/25 03:36:16;;;;;;;2.90;2.00;;;;;;;2.07;88.10;101483.94;4984908;28;20221;-76
2021/04/25 03:38:43;;;;;;;3.67;2.00;;;;;;;2.03;87.74;101489.00;4984777;28;20204;-76
2021/04/25 03:41:09;;;;;;;3.90;1.90;;;;;;;2.14;89.54;101484.94;4984695;28;20192;-76
2021/04/25 03:43:34;;;;;;;5.40;1.80;;;;;;;2.24;90.28;101479.16;4985568;28;20213;-76
2021/04/25 03:46:00;;;;;;;4.30;1.93;;;;;;;2.20;88.89;101479.94;4986524;28;20196;-76
2021/04/25 03:48:26;;;;;;;3.17;2.07;;;;;;;2.14;87.13;101471.22;4979599;28;20205;-76
2021/04/25 03:50:52;;;;;;;2.73;2.00;;;;;;;2.02;85.96;101482.97;4979371;28;20208;-76
2021/04/25 03:53:18;;;;;;;3.63;1.87;;;;;;;2.02;87.03;101487.22;4982270;28;20702;-76
2021/04/25 03:55:45;;;;;;;3.87;1.90;;;;;;;1.97;86.90;101494.88;4981716;28;20891;-77
2021/04/25 03:58:11;;;;;;;2.83;1.70;;;;;;;2.11;89.43;101492.63;4984992;28;20204;-76
2021/04/25 04:00:37;;;;;;;3.87;1.80;;;;;;;2.13;89.50;101493.50;4985362;28;20206;-77
2021/04/25 04:03:04;;;;;;;2.97;1.83;;;;;;;2.23;90.34;101497.13;4987105;28;20301;-76
2021/04/25 04:05:30;;;;;;;5.17;2.47;;;;;;;2.20;90.40;101492.81;4982994;28;20201;-76
2021/04/25 04:07:56;;;;;;;4.13;1.87;;;;;;;2.34;91.99;101490.53;4988067;28;20205;-76
2021/04/25 04:10:22;;;;;;;4.97;1.80;;;;;;;2.27;88.87;101494.69;4983768;28;20207;-76
2021/04/25 04:12:49;;;;;;;4.93;2.13;;;;;;;2.32;89.31;101496.47;4983882;28;20281;-77
2021/04/25 04:15:15;;;;;;;3.23;1.63;;;;;;;2.34;87.49;101495.69;4984482;28;20207;-76
2021/04/25 04:17:41;;;;;;;3.77;1.83;;;;;;;2.40;88.06;101494.94;4982482;28;20275;-75
2021/04/25 04:20:08;;;;;;;2.03;1.70;;;;;;;2.44;89.20;101489.00;4990273;28;20192;-77
2021/04/25 04:22:34;;;;;;;3.13;2.07;;;;;;;2.44;88.77;101489.00;4987890;28;20203;-77
2021/04/25 04:25:00;;;;;;;3.33;2.07;;;;;;;2.47;88.44;101486.50;4986152;28;20208;-76
2021/04/25 04:27:26;;;;;;;3.20;1.73;;;;;;;2.47;86.56;101497.66;4983195;28;20212;-76
2021/04/25 04:29:53;;;;;;;3.70;1.73;;;;;;;2.70;88.51;101483.53;4982938;28;20886;-77
2021/04/25 04:32:19;;;;;;;2.63;1.77;;;;;;;2.82;86.62;101496.66;4987317;28;20446;-77
2021/04/25 04:34:45;;;;;;;5.10;1.80;;;;;;;3.04;87.06;101492.78;4983988;28;20213;-76
2021/04/25 04:37:11;;;;;;;4.67;1.70;;;;;;;3.08;82.86;101496.28;4984602;28;20644;-76
2021/04/25 04:39:37;;;;;;;4.43;1.47;;;;;;;3.20;83.94;101491.34;4982225;28;20197;-76
2021/04/25 04:42:04;;;;;;;2.53;1.60;;;;;;;3.28;82.45;101494.94;4989098;28;20227;-75
2021/04/25 04:44:30;;;;;;;3.50;1.60;;;;;;;3.40;82.73;101492.56;4984215;28;20233;-76
2021/04/25 04:46:57;;;;;;;4.17;1.80;;;;;;;3.45;79.74;101504.66;4986341;28;20209;-76
2021/04/25 04:49:23;;;;;;;2.87;1.47;;;;;;;3.58;79.33;101504.03;4984658;28;20245;-75
2021/04/25 04:51:49;;;;;;;2.73;1.70;;;;;;;3.65;77.55;101508.44;4987006;28;20209;-76
2021/04/25 04:54:16;;;;;;;3.47;1.40;;;;;;;3.77;77.07;101502.63;4985393;28;20228;-76
2021/04/25 04:56:42;;;;;;;2.23;1.47;;;;;;;3.76;75.36;101506.03;4985747;28;20757;-76
2021/04/25 04:59:08;;;;;;;3.13;1.60;;;;;;;3.79;75.52;101512.13;4984106;28;20197;-76
2021/04/25 05:01:34;;;;;;;3.77;1.67;;;;;;;3.84;74.16;101513.91;4979905;28;20613;-76
2021/04/25 05:04:01;;;;;;;4.07;1.60;;;;;;;3.88;73.56;101518.28;4984281;28;20217;-76
2021/04/25 05:06:27;;;;;;;3.13;1.80;;;;;;;4.01;76.43;101504.72;4982422;28;20189;-76
2021/04/25 05:08:53;;;;;;;2.80;1.40;;;;;;;4.09;74.97;101512.56;4985670;28;20205;-77
2021/04/25 05:11:19;;;;;;;3.87;1.57;;;;;;;4.22;76.11;101508.44;4983869;28;20224;-76
2021/04/25 05:13:46;;;;;;;2.47;1.60;;;;;;;4.29;76.01;101507.69;4983438;28;20222;-76
2021/04/25 05:16:12;;;;;;;3.27;1.43;;;;;;;4.40;75.32;101508.72;4980842;28;20203;-76
2021/04/25 05:18:39;;;;;;;2.37;1.50;;;;;;;4.47;75.87;101504.50;4976047;28;20664;-76
2021/04/25 05:21:06;;;;;;;3.57;1.60;;;;;;;4.55;75.31;101511.47;4980258;28;20280;-76
2021/04/25 05:23:32;;;;;;;1.97;1.40;;;;;;;4.63;74.95;101510.72;4978915;28;20253;-76
2021/04/25 05:25:58;;;;;;;4.80;1.70;;;;;;;4.65;73.58;101514.19;4987530;28;20681;-76
2021/04/25 05:28:24;;;;;;;2.40;1.57;;;;;;;4.66;70.21;101523.66;4982913;28;20197;-76
2021/04/25 05:30:50;;;;;;;2.97;1.57;;;;;;;4.72;72.37;101508.25;4985798;28;20205;-76
2021/04/25 05:33:16;;;;;;;3.53;1.93;;;;;;;4.74;70.89;101514.31;4983494;28;20230;-76
2021/04/25 05:35:42;;;;;;;5.20;1.70;;;;;;;4.81;72.83;101517.84;4985268;28;21373;-76
2021/04/25 05:38:09;;;;;;;2.63;1.60;;;;;;;4.80;71.29;101513.50;4983866;28;20294;-76
2021/04/25 05:40:35;;;;;;;3.63;2.07;;;;;;;4.84;71.30;101515.28;4981025;28;20197;-76
2021/04/25 05:43:01;;;;;;;4.30;1.73;;;;;;;4.89;71.15;101509.31;4981578;28;20302;-76
2021/04/25 05:45:27;;;;;;;4.60;1.63;;;;;;;4.93;71.00;101508.50;4983245;28;20205;-76
2021/04/25 05:47:56;;;;;;;4.30;1.67;;;;;;;4.99;72.48;101506.84;4982029;28;20315;-75
2021/04/25 05:50:24;;;;;;;2.67;1.67;;;;;;;5.04;72.21;101513.78;4981449;28;20205;-76
2021/04/25 05:52:51;;;;;;;2.80;1.50;;;;;;;5.10;72.90;101511.28;4982715;28;20735;-76
2021/04/25 05:55:18;;;;;;;2.77;1.90;;;;;;;5.17;74.44;101496.69;4984606;28;20827;-76
2021/04/25 05:57:45;;;;;;;2.97;1.80;;;;;;;5.22;72.62;101502.75;4982625;28;20200;-76
2021/04/25 06:00:14;;;;;;;3.80;2.00;;;;;;;5.32;74.44;101486.47;4986071;28;20201;-76
2021/04/25 06:02:40;;;;;;;2.40;1.60;;;;;;;5.34;72.20;101493.41;4976978;28;20501;-76
2021/04/25 06:05:08;;;;;;;2.63;1.80;;;;;;;5.37;72.32;101489.13;4984272;28;20257;-76
2021/04/25 06:07:34;;;;;;;4.20;1.67;;;;;;;5.46;74.01;101491.78;4984591;28;20197;-76
2021/04/25 06:10:00;;;;;;;3.30;1.83;;;;;;;5.51;72.33;101497.00;4979765;28;20208;-75
2021/04/25 06:12:26;;;;;;;3.53;1.83;;;;;;;5.60;71.01;101496.22;4979170;28;20216;-76
2021/04/25 06:14:52;;;;;;;5.20;2.23;;;;;;;5.65;69.43;101503.16;4978278;28;20201;-76
2021/04/25 06:17:18;;;;;;;2.13;1.63;;;;;;;5.73;70.17;101497.19;4985587;28;20199;-76
2021/04/25 06:19:44;;;;;;;2.97;2.00;;;;;;;5.72;69.38;101505.78;4982680;28;20209;-76
2021/04/25 06:22:13;;;;;;;2.10;1.50;;;;;;;5.72;68.81;101506.66;4984057;28;20251;-76
2021/04/25 06:24:40;;;;;;;3.23;1.63;;;;;;;5.72;68.76;101513.53;4985321;28;20596;-76
2021/04/25 06:27:06;;;;;;;2.20;1.60;;;;;;;5.81;68.46;101509.31;4982190;28;20208;-76
2021/04/25 06:29:33;;;;;;;3.30;1.47;;;;;;;5.94;69.13;101504.22;4982193;28;20572;-76
2021/04/25 06:31:59;;;;;;;3.33;1.73;;;;;;;6.02;68.81;101503.47;4982619;28;20201;-76
2021/04/25 06:34:25;;;;;;;2.60;1.70;;;;;;;6.12;68.13;101511.28;4982166;28;20233;-76
2021/04/25 06:36:51;;;;;;;3.67;1.60;;;;;;;6.21;66.97;101509.63;4982353;28;20202;-76
2021/04/25 06:39:17;;;;;;;4.57;1.70;;;;;;;6.23;65.67;101513.09;4987979;28;20201;-76
2021/04/25 06:41:43;;;;;;;3.47;1.60;;;;;;;6.33;65.73;101510.53;4985449;28;20194;-76
2021/04/25 06:44:09;;;;;;;3.00;1.67;;;;;;;6.43;63.80;101520.97;4980792;28;20726;-76
2021/04/25 06:46:37;;;;;;;3.27;1.80;;;;;;;6.54;63.67;101523.59;4986970;28;20239;-76
2021/04/25 06:49:04;;;;;;;4.07;1.80;;;;;;;6.54;62.15;101526.19;4986301;28;20281;-76
2021/04/25 06:51:30;;;;;;;5.63;1.77;;;;;;;6.53;58.65;101537.44;4986029;28;20212;-76
2021/04/25 06:53:56;;;;;;;3.00;1.57;;;;;;;6.63;60.50;101541.81;4987243;28;20222;-76
2021/04/25 06:56:22;;;;;;;2.73;1.67;;;;;;;6.70;58.72;101554.78;4984884;28;20861;-76
2021/04/25 06:58:47;;;;;;;2.60;1.60;;;;;;;6.77;59.10;101557.44;4984100;28;20212;-76
2021/04/25 07:01:14;;;;;;;2.90;1.93;;;;;;;6.82;59.84;101554.84;4988912;28;20225;-76
2021/04/25 07:03:40;;;;;;;1.80;1.20;;;;;;;6.89;57.21;101572.16;4983674;28;20237;-76
2021/04/25 07:06:07;;;;;;;3.70;2.13;;;;;;;6.85;56.95;101572.16;5003097;28;20232;-77
2021/04/25 07:08:33;;;;;;;3.13;1.53;;;;;;;6.84;56.09;101573.84;4984307;28;20246;-76
2021/04/25 07:10:59;;;;;;;1.73;1.40;;;;;;;6.98;56.70;101579.09;4983887;28;20604;-76
2021/04/25 07:13:25;;;;;;;2.20;1.57;;;;;;;7.00;55.91;101577.38;4980074;28;20701;-76
2021/04/25 07:15:51;;;;;;;4.03;1.50;;;;;;;7.06;54.48;101586.94;4977579;28;20213;-77
2021/04/25 07:18:17;;;;;;;1.90;1.60;;;;;;;7.09;55.93;101587.81;4984179;28;20198;-76
2021/04/25 07:20:44;;;;;;;2.30;1.37;;;;;;;7.21;56.13;101589.53;4982588;28;20222;-76
2021/04/25 07:23:11;;;;;;;1.50;1.40;;;;;;;7.35;56.10;101595.66;4984978;28;20257;-76
2021/04/25 07:25:37;;;;;;;2.43;1.60;;;;;;;7.38;54.34;101605.16;4981610;28;20733;-76
2021/04/25 07:28:03;;;;;;;1.87;1.63;;;;;;;7.42;54.11;101596.53;4979705;28;20206;-76
2021/04/25 07:30:29;;;;;;;4.67;1.77;;;;;;;7.42;52.96;101599.13;4979454;28;20201;-76
2021/04/25 07:32:55;;;;;;;2.63;1.43;;;;;;;7.43;53.00;101606.06;4981428;28;20271;-76
2021/04/25 07:35:21;;;;;;;1.23;1.03;;;;;;;7.46;49.59;101612.97;4981368;28;20194;-76
2021/04/25 07:37:49;;;;;;;1.57;1.10;;;;;;;7.47;46.10;101622.50;4972417;28;20206;-76
2021/04/25 07:40:16;;;;;;;1.97;1.00;;;;;;;7.48;43.45;101626.84;4983623;28;20194;-77
2021/04/25 07:42:42;;;;;;;1.50;0.77;;;;;;;7.53;43.60;101625.97;4980995;28;20191;-77
2021/04/25 07:45:12;;;;;;;1.23;0.80;;;;;;;7.65;43.37;101619.97;4981836;28;20745;-76
2021/04/25 07:47:38;;;;;;;1.40;0.90;;;;;;;7.72;43.40;101631.19;4981084;28;20196;-76
2021/04/25 07:50:05;;;;;;;1.83;0.90;;;;;;;7.72;41.78;101632.09;4983061;28;20206;-77
2021/04/25 07:52:32;;;;;;;1.63;0.97;;;;;;;7.71;44.09;101622.53;4980949;28;20605;-76
2021/04/25 07:54:59;;;;;;;2.67;1.20;;;;;;;7.67;44.64;101619.94;4981371;28;20714;-76
2021/04/25 07:57:25;;;;;;;1.40;1.13;;;;;;;7.74;43.59;101619.09;4977589;28;20191;-77
2021/04/25 07:59:51;;;;;;;1.27;1.00;;;;;;;7.96;45.70;101612.19;4977400;28;20203;-76
2021/04/25 08:02:20;;;;;;;1.77;1.17;;;;;;;8.23;45.22;101605.25;4979357;28;20230;-76
2021/04/25 08:04:46;;;;;;;1.60;1.00;;;;;;;8.12;43.45;101613.06;4999513;28;20246;-76
2021/04/25 08:07:12;;;;;;;1.83;1.10;;;;;;;8.17;44.24;101618.25;4974500;28;20221;-77
2021/04/25 08:09:38;;;;;;;1.67;1.10;;;;;;;8.12;44.00;101624.28;4976941;28;20203;-76
2021/04/25 08:12:06;;;;;;;2.50;1.17;;;;;;;8.15;44.09;101611.31;4977185;28;20197;-77
2021/04/25 08:14:32;;;;;;;1.50;1.20;;;;;;;8.37;45.20;101616.50;4979271;28;20223;-76
2021/04/25 08:16:58;;;;;;;1.00;0.87;;;;;;;8.41;42.94;101625.16;4983419;28;20683;-76
2021/04/25 08:19:24;;;;;;;1.73;1.00;;;;;;;8.39;42.79;101624.28;4976499;28;20237;-76
2021/04/25 08:21:50;;;;;;;1.40;1.10;;;;;;;8.60;43.84;101620.81;4978081;28;20234;-77
2021/04/25 08:24:16;;;;;;;1.53;0.83;;;;;;;8.50;42.28;101623.44;4980021;28;20312;-77
2021/04/25 08:26:42;;;;;;;1.20;0.97;;;;;;;8.79;44.32;101616.44;4972985;28;21214;-76
2021/04/25 08:29:09;;;;;;;1.50;1.40;;;;;;;8.83;42.99;101615.56;4970468;28;20211;-76
2021/04/25 08:31:35;;;;;;;2.37;1.33;;;;;;;8.89;45.55;101611.22;4978968;28;20196;-77
2021/04/25 08:34:01;;;;;;;3.23;1.17;;;;;;;8.93;41.85;101616.41;4972437;28;20283;-76
2021/04/25 08:36:27;;;;;;;2.87;1.03;;;;;;;8.77;41.56;101620.78;4981580;28;20291;-76
2021/04/25 08:38:53;;;;;;;3.93;1.53;;;;;;;8.85;43.60;101619.03;4977324;28;20234;-77
2021/04/25 08:41:20;;;;;;;1.50;0.90;;;;;;;8.89;44.47;101619.00;4976541;28;20275;-77
2021/04/25 08:43:47;;;;;;;1.20;1.00;;;;;;;9.08;45.09;101605.94;4964342;28;20242;-77
2021/04/25 08:46:17;;;;;;;1.50;0.90;;;;;;;9.45;45.96;101603.16;4964796;28;20294;-77
2021/04/25 08:48:46;;;;;;;2.33;1.20;;;;;;;9.72;44.40;101609.06;4959353;28;20221;-77
2021/04/25 08:51:13;;;;;;;1.07;0.93;;;;;;;9.82;41.74;101621.16;4959475;28;20596;-77
2021/04/25 08:53:39;;;;;;;1.70;1.10;;;;;;;9.51;41.66;101621.34;4962656;28;20637;-77
2021/04/25 08:56:05;;;;;;;1.80;1.00;;;;;;;9.53;40.34;101631.75;4963272;28;20226;-77
2021/04/25 08:58:32;;;;;;;3.83;1.00;;;;;;;9.56;40.42;101623.91;4961331;28;20276;-77
2021/04/25 09:00:58;;;;;;;2.83;1.20;;;;;;;9.52;40.99;101619.63;4959238;28;20213;-76
2021/04/25 09:03:25;;;;;;;1.60;1.10;;;;;;;9.49;41.05;101620.47;4968342;28;20218;-76
2021/04/25 09:05:51;;;;;;;4.67;1.53;;;;;;;9.39;42.71;101608.38;4968029;28;20214;-77
2021/04/25 09:08:17;;;;;;;2.60;1.40;;;;;;;9.48;43.56;101605.75;4957954;28;20201;-77
2021/04/25 09:10:46;;;;;;;3.13;1.20;;;;;;;9.50;41.31;101611.81;4955223;28;20206;-77
2021/04/25 09:13:15;;;;;;;4.93;2.47;;;;;;;9.50;40.24;101614.41;4954823;28;20229;-75
2021/04/25 09:15:41;;;;;;;13.37;4.27;;;;;;;9.45;41.58;101608.38;4958746;28;20237;-75
2021/04/25 09:18:07;;;;;;;7.77;2.83;;;;;;;9.35;42.90;101606.69;4956562;28;20199;-76
2021/04/25 09:20:40;;;;;;;8.57;3.27;;;;;;;9.48;42.63;101606.63;4956559;28;20198;-77
2021/04/25 09:23:06;;;;;;;7.87;3.13;;;;;;;9.55;40.89;101607.44;4960121;28;20753;-77
2021/04/25 09:25:33;;;;;;;2.07;1.20;;;;;;;9.58;43.76;101602.19;4957378;28;20198;-77
2021/04/25 09:28:09;;;;;;;7.90;3.03;;;;;;;9.64;41.91;101604.78;4959418;28;20570;-77
2021/04/25 09:30:35;;;;;;;4.17;2.00;;;;;;;9.67;41.73;101606.47;4955283;28;20504;-77
2021/04/25 09:33:04;;;;;;;2.50;1.50;;;;;;;9.82;43.10;101598.56;4959617;28;20229;-77
2021/04/25 09:35:30;;;;;;;4.10;1.73;;;;;;;10.17;43.43;101604.38;4959692;28;20202;-77
2021/04/25 09:37:58;;;;;;;2.97;1.20;;;;;;;10.15;43.99;101611.31;4955768;28;20198;-76
2021/04/25 09:40:26;;;;;;;2.20;1.27;;;;;;;9.90;42.09;101602.84;4960815;28;20194;-76
2021/04/25 09:42:59;;;;;;;1.60;1.30;;;;;;;9.69;42.62;101603.88;4958688;28;20278;-76
2021/04/25 09:45:27;;;;;;;3.73;2.03;;;;;;;9.59;42.84;101603.06;4960974;28;20218;-77
2021/04/25 09:47:54;;;;;;;3.03;1.50;;;;;;;9.40;41.81;101604.91;4956579;28;20194;-77
2021/04/25 09:50:21;;;;;;;2.27;1.23;;;;;;;9.13;43.22;101596.38;4957617;28;20209;-76
2021/04/25 09:52:50;;;;;;;2.93;1.37;;;;;;;9.27;42.83;101597.19;4959017;28;20222;-76
2021/04/25 09:55:19;;;;;;;1.77;1.27;;;;;;;9.38;44.07;101601.47;4957055;28;20305;-77
2021/04/25 09:57:46;;;;;;;2.07;1.10;;;;;;;9.16;42.67;101600.69;4957638;28;20216;-77
2021/04/25 10:00:14;;;;;;;1.50;1.30;;;;;;;8.94;43.51;101599.94;4960597;28;20304;-77
2021/04/25 10:03:06;;;;;;;1.43;1.30;;;;;;;8.84;44.35;101594.75;4948892;28;20642;-76
2021/04/25 10:05:32;;;;;;;1.43;1.17;;;;;;;8.89;46.37;101592.16;4962112;28;20248;-76
2021/04/25 10:07:59;;;;;;;2.70;1.20;;;;;;;8.80;45.20;101600.00;4957773;28;20209;-76
2021/04/25 10:10:27;;;;;;;3.77;1.50;;;;;;;8.71;44.33;101603.47;4959577;28;20200;-77
2021/04/25 10:12:53;;;;;;;2.13;1.30;;;;;;;8.84;45.22;101607.75;4965293;28;20632;-77
2021/04/25 10:15:21;;;;;;;3.50;1.80;;;;;;;8.61;44.83;101605.22;4960373;28;20206;-77
2021/04/25 10:17:51;;;;;;;2.80;1.87;;;;;;;8.63;44.43;101618.22;4963022;28;20687;-76
2021/04/25 10:20:19;;;;;;;3.07;1.67;;;;;;;8.51;44.27;101611.31;4953825;28;20209;-76
2021/04/25 10:22:46;;;;;;;3.20;2.20;;;;;;;8.45;45.55;101613.94;4960268;28;20197;-77
2021/04/25 10:25:15;;;;;;;1.40;1.23;;;;;;;8.37;46.22;101616.50;4960719;28;20717;-76
2021/04/25 10:27:47;;;;;;;3.20;1.50;;;;;;;8.28;46.68;101616.50;4966287;28;20202;-76
2021/04/25 10:30:14;;;;;;;3.60;1.70;;;;;;;8.20;45.76;101615.66;4958928;28;20251;-77
2021/04/25 10:32:43;;;;;;;4.10;1.60;;;;;;;8.11;47.19;101613.94;4962910;28;20550;-77
2021/04/25 10:35:14;;;;;;;2.10;1.23;;;;;;;8.12;46.63;101610.44;4963330;28;20215;-77
2021/04/25 10:37:56;;;;;;;2.10;1.27;;;;;;;8.25;46.57;101600.91;4961718;28;20313;-77
2021/04/25 10:40:31;;;;;;;2.50;1.23;;;;;;;8.36;46.54;101599.19;4975428;28;20206;-77
2021/04/25 10:43:00;;;;;;;2.43;1.30;;;;;;;8.50;46.04;101609.59;4961013;28;20229;-77
2021/04/25 10:45:30;;;;;;;3.00;1.20;;;;;;;8.61;45.35;101592.22;4960423;28;20920;-77
2021/04/25 10:48:33;;;;;;;2.43;1.20;;;;;;;9.02;46.18;101601.66;4965346;28;20207;-77
2021/04/25 10:51:12;;;;;;;1.53;1.10;;;;;;;9.32;45.50;101593.69;4961501;28;20291;-77
2021/04/25 10:53:39;;;;;;;2.33;1.27;;;;;;;9.03;45.38;101586.91;4960912;28;20223;-76
2021/04/25 10:56:29;;;;;;;1.03;0.93;;;;;;;9.08;45.31;101592.94;4958909;28;20223;-77
2021/04/25 10:59:24;;;;;;;2.20;1.53;;;;;;;8.79;45.07;101608.66;4960612;28;20242;-77
2021/04/25 11:01:50;;;;;;;1.83;1.30;;;;;;;8.64;46.13;101604.38;4962312;28;20273;-77
2021/04/25 11:04:55;;;;;;;2.80;1.50;;;;;;;8.43;46.39;101613.06;4963671;28;20222;-76
2021/04/25 11:07:37;;;;;;;1.80;1.20;;;;;;;8.35;47.15;101610.44;4963115;28;20249;-77
2021/04/25 11:10:04;;;;;;;1.27;1.10;;;;;;;8.49;47.95;101613.06;4962857;28;20622;-77
2021/04/25 11:12:35;;;;;;;2.37;1.23;;;;;;;8.45;47.00;101619.13;4956701;28;20207;-76
2021/04/25 11:15:02;;;;;;;2.23;1.40;;;;;;;8.43;47.49;101613.94;4960166;28;20205;-76
2021/04/25 11:17:32;;;;;;;1.67;1.23;;;;;;;8.27;49.50;101613.06;4959407;28;20207;-76
2021/04/25 11:19:58;;;;;;;3.17;1.43;;;;;;;8.02;50.41;101609.59;4958845;28;20203;-77
2021/04/25 11:22:44;;;;;;;3.87;1.40;;;;;;;8.13;50.75;101617.41;4960384;28;20205;-76
2021/04/25 11:25:32;;;;;;;1.70;1.20;;;;;;;8.31;51.24;101619.09;4960241;28;20323;-77
2021/04/25 11:27:59;;;;;;;3.77;1.23;;;;;;;8.22;51.25;101617.38;4960814;28;20202;-76
2021/04/25 11:30:36;;;;;;;2.00;1.50;;;;;;;8.28;52.07;101616.50;4961191;28;20199;-77
2021/04/25 11:33:39;;;;;;;2.60;1.60;;;;;;;7.96;52.19;101613.03;4958868;28;20233;-76
2021/04/25 11:36:37;;;;;;;2.53;1.57;;;;;;;8.06;52.04;101620.88;4959607;28;21736;-76